sensor_id;sensor_type;location;lat;lon;timestamp;pressure;altitude;pressure_sealevel;temperature;humidity
19576;BME280;41589;51.196;7.074;2024-03-23T00:55:49;98295.22;;;7.75;100.00
19576;BME280;41589;51.196;7.074;2024-03-23T01:00:50;98299.38;;;7.52;100.00
19576;BME280;41589;51.196;7.074;2024-03-23T01:05:50;98301.16;;;7.96;100.00
19576;BME280;41589;51.196;7.074;2024-03-23T01:11:00;98307.25;;;8.03;100.00
19576;BME280;41589;51.196;7.074;2024-03-23T01:16:00;98285.94;;;8.52;100.00
19576;BME280;41589;51.196;7.074;2024-03-23T01:21:01;98277.50;;;8.06;100.00
19576;BME280;41589;51.196;7.074;2024-03-23T01:26:02;98279.50;;;7.78;100.00
19576;BME280;41589;51.196;7.074;2024-03-23T01:31:02;98271.28;;;8.02;100.00
19576;BME280;41589;51.196;7.074;2024-03-23T01:36:03;98283.06;;;7.60;100.00
19576;BME280;41589;51.196;7.074;2024-03-23T01:41:03;98276.06;;;7.65;100.00
19576;BME280;41589;51.196;7.074;2024-03-23T01:46:04;98283.72;;;7.82;100.00
19576;BME280;41589;51.196;7.074;2024-03-23T01:51:04;98290.03;;;7.55;100.00
19576;BME280;41589;51.196;7.074;2024-03-23T01:56:05;98280.34;;;7.47;100.00
19576;BME280;41589;51.196;7.074;2024-03-23T02:01:05;98279.56;;;7.47;100.00
19576;BME280;41589;51.196;7.074;2024-03-23T02:06:06;98278.38;;;7.17;100.00
19576;BME280;41589;51.196;7.074;2024-03-23T02:11:07;98296.47;;;6.94;100.00
19576;BME280;41589;51.196;7.074;2024-03-23T02:16:08;98277.25;;;7.05;100.00
19576;BME280;41589;51.196;7.074;2024-03-23T02:21:08;98261.56;;;7.08;100.00
19576;BME280;41589;51.196;7.074;2024-03-23T02:26:09;98270.88;;;6.52;100.00
19576;BME280;41589;51.196;7.074;2024-03-23T02:31:09;98257.22;;;6.76;100.00
19576;BME280;41589;51.196;7.074;2024-03-23T02:36:09;98260.00;;;6.76;100.00
19576;BME280;41589;51.196;7.074;2024-03-23T02:41:10;98259.09;;;7.10;100.00
19576;BME280;41589;51.196;7.074;2024-03-23T02:46:10;98255.72;;;6.93;100.00
19576;BME280;41589;51.196;7.074;2024-03-23T02:51:10;98275.97;;;6.97;100.00
19576;BME280;41589;51.196;7.074;2024-03-23T02:56:11;98277.06;;;7.00;100.00
19576;BME280;41589;51.196;7.074;2024-03-23T03:01:15;98274.38;;;7.27;100.00
19576;BME280;41589;51.196;7.074;2024-03-23T03:06:25;98277.72;;;7.44;100.00
19576;BME280;41589;51.196;7.074;2024-03-23T03:11:26;98268.66;;;7.31;100.00
19576;BME280;41589;51.196;7.074;2024-03-23T03:16:26;98265.38;;;7.32;100.00
19576;BME280;41589;51.196;7.074;2024-03-23T03:21:27;98268.84;;;7.05;100.00
19576;BME280;41589;51.196;7.074;2024-03-23T03:26:27;98240.06;;;6.43;100.00
19576;BME280;41589;51.196;7.074;2024-03-23T03:31:27;98250.38;;;6.33;100.00
19576;BME280;41589;51.196;7.074;2024-03-23T03:36:28;98259.19;;;6.66;100.00
19576;BME280;41589;51.196;7.074;2024-03-23T03:41:28;98246.91;;;6.73;100.00
19576;BME280;41589;51.196;7.074;2024-03-23T03:46:28;98259.22;;;6.75;100.00
19576;BME280;41589;51.196;7.074;2024-03-23T03:51:29;98266.81;;;6.96;100.00
19576;BME280;41589;51.196;7.074;2024-03-23T03:56:29;98268.66;;;6.68;100.00
19576;BME280;41589;51.196;7.074;2024-03-23T04:01:29;98254.81;;;6.65;100.00
19576;BME280;41589;51.196;7.074;2024-03-23T04:06:30;98250.91;;;6.62;100.00
19576;BME280;41589;51.196;7.074;2024-03-23T04:11:30;98258.22;;;6.91;100.00
19576;BME280;41589;51.196;7.074;2024-03-23T04:16:34;98268.41;;;7.16;100.00
19576;BME280;41589;51.196;7.074;2024-03-23T04:21:36;98259.63;;;7.36;100.00
19576;BME280;41589;51.196;7.074;2024-03-23T04:26:43;98266.19;;;7.42;100.00
19576;BME280;41589;51.196;7.074;2024-03-23T04:31:43;98248.78;;;7.47;100.00
19576;BME280;41589;51.196;7.074;2024-03-23T04:36:44;98249.41;;;7.51;100.00
19576;BME280;41589;51.196;7.074;2024-03-23T04:41:44;98264.00;;;7.46;100.00
19576;BME280;41589;51.196;7.074;2024-03-23T04:46:45;98260.66;;;7.60;100.00
19576;BME280;41589;51.196;7.074;2024-03-23T04:51:47;98257.06;;;7.60;100.00
19576;BME280;41589;51.196;7.074;2024-03-23T04:56:47;98258.19;;;7.71;100.00
19576;BME280;41589;51.196;7.074;2024-03-23T05:01:48;98261.72;;;7.63;100.00
19576;BME280;41589;51.196;7.074;2024-03-23T05:06:50;98259.97;;;7.47;100.00
19576;BME280;41589;51.196;7.074;2024-03-23T05:11:50;98246.75;;;7.38;100.00
19576;BME280;41589;51.196;7.074;2024-03-23T05:16:51;98260.44;;;7.45;100.00
19576;BME280;41589;51.196;7.074;2024-03-23T05:21:51;98261.97;;;7.37;100.00
19576;BME280;41589;51.196;7.074;2024-03-23T05:26:53;98260.75;;;7.38;100.00
19576;BME280;41589;51.196;7.074;2024-03-23T05:31:53;98261.91;;;7.19;100.00
19576;BME280;41589;51.196;7.074;2024-03-23T05:36:56;98274.72;;;7.29;100.00
19576;BME280;41589;51.196;7.074;2024-03-23T05:41:56;98261.19;;;7.28;100.00
19576;BME280;41589;51.196;7.074;2024-03-23T05:46:57;98272.81;;;7.26;100.00
19576;BME280;41589;51.196;7.074;2024-03-23T05:51:57;98261.56;;;7.17;100.00
19576;BME280;41589;51.196;7.074;2024-03-23T05:56:57;98269.25;;;7.25;100.00
19576;BME280;41589;51.196;7.074;2024-03-23T06:01:58;98263.75;;;7.13;100.00
19576;BME280;41589;51.196;7.074;2024-03-23T06:06:58;98269.91;;;6.99;100.00
19576;BME280;41589;51.196;7.074;2024-03-23T06:11:58;98280.66;;;7.00;100.00
19576;BME280;41589;51.196;7.074;2024-03-23T06:16:59;98288.00;;;7.07;100.00
19576;BME280;41589;51.196;7.074;2024-03-23T06:22:00;98285.97;;;7.07;100.00
19576;BME280;41589;51.196;7.074;2024-03-23T06:27:00;98294.06;;;7.14;100.00
19576;BME280;41589;51.196;7.074;2024-03-23T06:32:00;98292.88;;;7.24;100.00
19576;BME280;41589;51.196;7.074;2024-03-23T06:37:00;98278.78;;;7.06;100.00
19576;BME280;41589;51.196;7.074;2024-03-23T06:42:01;98286.75;;;7.08;100.00
19576;BME280;41589;51.196;7.074;2024-03-23T06:47:01;98287.56;;;7.17;100.00
19576;BME280;41589;51.196;7.074;2024-03-23T06:52:03;98292.28;;;7.30;100.00
19576;BME280;41589;51.196;7.074;2024-03-23T06:57:03;98308.78;;;7.28;100.00
19576;BME280;41589;51.196;7.074;2024-03-23T07:02:04;98308.94;;;7.33;100.00
19576;BME280;41589;51.196;7.074;2024-03-23T07:07:04;98304.22;;;7.21;100.00
19576;BME280;41589;51.196;7.074;2024-03-23T07:12:05;98302.44;;;7.45;100.00
19576;BME280;41589;51.196;7.074;2024-03-23T07:17:05;98313.94;;;7.47;100.00
19576;BME280;41589;51.196;7.074;2024-03-23T07:22:06;98308.72;;;7.68;100.00
19576;BME280;41589;51.196;7.074;2024-03-23T07:27:06;98303.94;;;7.87;100.00
19576;BME280;41589;51.196;7.074;2024-03-23T07:32:10;98310.03;;;7.85;100.00
19576;BME280;41589;51.196;7.074;2024-03-23T07:37:11;98317.03;;;7.99;100.00
19576;BME280;41589;51.196;7.074;2024-03-23T07:42:12;98318.44;;;7.85;100.00
19576;BME280;41589;51.196;7.074;2024-03-23T07:47:12;98311.28;;;7.93;100.00
19576;BME280;41589;51.196;7.074;2024-03-23T07:52:12;98317.84;;;8.08;100.00
19576;BME280;41589;51.196;7.074;2024-03-23T07:57:13;98309.94;;;8.25;100.00
19576;BME280;41589;51.196;7.074;2024-03-23T08:02:13;98310.88;;;8.50;100.00
19576;BME280;41589;51.196;7.074;2024-03-23T08:07:13;98325.53;;;8.63;100.00
19576;BME280;41589;51.196;7.074;2024-03-23T08:12:14;98320.16;;;8.92;100.00
19576;BME280;41589;51.196;7.074;2024-03-23T08:17:14;98323.88;;;9.08;100.00
19576;BME280;41589;51.196;7.074;2024-03-23T08:22:14;98311.75;;;8.83;100.00
19576;BME280;41589;51.196;7.074;2024-03-23T08:27:15;98313.03;;;8.73;100.00
19576;BME280;41589;51.196;7.074;2024-03-23T08:32:15;98314.38;;;9.05;100.00
19576;BME280;41589;51.196;7.074;2024-03-23T08:37:17;98318.84;;;9.21;100.00
19576;BME280;41589;51.196;7.074;2024-03-23T08:42:17;98316.63;;;9.34;100.00
19576;BME280;41589;51.196;7.074;2024-03-23T08:47:17;98309.19;;;9.55;100.00
19576;BME280;41589;51.196;7.074;2024-03-23T08:52:18;98317.78;;;9.18;100.00
19576;BME280;41589;51.196;7.074;2024-03-23T08:57:18;98306.38;;;9.22;100.00
19576;BME280;41589;51.196;7.074;2024-03-23T09:02:19;98312.50;;;9.44;100.00
19576;BME280;41589;51.196;7.074;2024-03-23T09:07:19;98291.34;;;9.34;100.00
19576;BME280;41589;51.196;7.074;2024-03-23T09:12:19;98310.81;;;9.05;100.00
19576;BME280;41589;51.196;7.074;2024-03-23T09:17:19;98317.53;;;8.98;100.00
19576;BME280;41589;51.196;7.074;2024-03-23T09:22:21;98313.47;;;8.99;100.00
19576;BME280;41589;51.196;7.074;2024-03-23T09:27:21;98313.78;;;8.83;100.00
19576;BME280;41589;51.196;7.074;2024-03-23T09:32:21;98320.06;;;8.68;100.00
19576;BME280;41589;51.196;7.074;2024-03-23T09:37:22;98312.13;;;8.67;100.00
19576;BME280;41589;51.196;7.074;2024-03-23T09:42:22;98308.31;;;8.97;100.00
19576;BME280;41589;51.196;7.074;2024-03-23T09:47:24;98305.53;;;8.88;100.00
19576;BME280;41589;51.196;7.074;2024-03-23T09:52:25;98310.19;;;8.91;100.00
19576;BME280;41589;51.196;7.074;2024-03-23T09:57:25;98305.50;;;8.97;100.00
19576;BME280;41589;51.196;7.074;2024-03-23T10:02:25;98303.47;;;9.07;100.00
19576;BME280;41589;51.196;7.074;2024-03-23T10:07:26;98292.44;;;8.94;100.00
19576;BME280;41589;51.196;7.074;2024-03-23T10:12:28;98299.44;;;9.41;100.00
19576;BME280;41589;51.196;7.074;2024-03-23T10:17:29;98289.03;;;9.56;100.00
19576;BME280;41589;51.196;7.074;2024-03-23T10:22:29;98289.00;;;9.33;100.00
19576;BME280;41589;51.196;7.074;2024-03-23T10:27:36;98307.63;;;9.21;100.00
19576;BME280;41589;51.196;7.074;2024-03-23T10:32:37;98291.47;;;9.40;100.00
19576;BME280;41589;51.196;7.074;2024-03-23T10:37:37;98280.88;;;9.35;100.00
19576;BME280;41589;51.196;7.074;2024-03-23T10:42:38;98289.03;;;9.56;100.00
19576;BME280;41589;51.196;7.074;2024-03-23T10:47:40;98285.13;;;9.63;100.00
19576;BME280;41589;51.196;7.074;2024-03-23T10:52:42;98302.00;;;9.21;100.00
19576;BME280;41589;51.196;7.074;2024-03-23T10:57:49;98342.53;;;8.32;100.00
19576;BME280;41589;51.196;7.074;2024-03-23T11:02:51;98358.19;;;8.11;100.00
19576;BME280;41589;51.196;7.074;2024-03-23T11:07:52;98364.88;;;8.04;100.00
19576;BME280;41589;51.196;7.074;2024-03-23T11:12:53;98370.25;;;7.90;100.00
19576;BME280;41589;51.196;7.074;2024-03-23T11:18:04;98380.50;;;7.74;100.00
19576;BME280;41589;51.196;7.074;2024-03-23T11:23:05;98384.66;;;7.30;100.00
19576;BME280;41589;51.196;7.074;2024-03-23T11:28:11;98358.34;;;7.27;100.00
19576;BME280;41589;51.196;7.074;2024-03-23T11:33:12;98343.13;;;6.97;100.00
19576;BME280;41589;51.196;7.074;2024-03-23T11:38:13;98338.06;;;7.14;100.00
19576;BME280;41589;51.196;7.074;2024-03-23T11:43:16;98330.13;;;7.43;100.00
19576;BME280;41589;51.196;7.074;2024-03-23T11:48:19;98336.31;;;7.78;100.00
19576;BME280;41589;51.196;7.074;2024-03-23T11:53:24;98329.72;;;8.40;100.00
19576;BME280;41589;51.196;7.074;2024-03-23T11:58:25;98324.69;;;8.99;100.00
19576;BME280;41589;51.196;7.074;2024-03-23T12:03:26;98324.00;;;9.55;100.00
19576;BME280;41589;51.196;7.074;2024-03-23T12:13:28;98318.31;;;10.46;100.00
19576;BME280;41589;51.196;7.074;2024-03-23T12:18:29;98336.13;;;9.38;100.00
19576;BME280;41589;51.196;7.074;2024-03-23T12:23:30;98333.41;;;9.01;100.00
19576;BME280;41589;51.196;7.074;2024-03-23T12:28:30;98346.41;;;8.53;100.00
19576;BME280;41589;51.196;7.074;2024-03-23T12:33:31;98352.00;;;8.25;100.00
19576;BME280;41589;51.196;7.074;2024-03-23T12:38:31;98349.91;;;7.98;100.00
19576;BME280;41589;51.196;7.074;2024-03-23T12:43:31;98350.38;;;8.06;100.00
19576;BME280;41589;51.196;7.074;2024-03-23T12:48:32;98345.09;;;8.08;100.00
19576;BME280;41589;51.196;7.074;2024-03-23T12:53:32;98343.47;;;7.79;100.00
19576;BME280;41589;51.196;7.074;2024-03-23T12:58:32;98339.47;;;7.99;100.00
19576;BME280;41589;51.196;7.074;2024-03-23T13:03:33;98322.94;;;7.82;100.00
19576;BME280;41589;51.196;7.074;2024-03-23T13:08:33;98309.41;;;7.81;100.00
19576;BME280;41589;51.196;7.074;2024-03-23T13:13:33;98316.47;;;8.40;100.00
19576;BME280;41589;51.196;7.074;2024-03-23T13:18:34;98307.06;;;8.98;100.00
19576;BME280;41589;51.196;7.074;2024-03-23T13:23:34;98305.78;;;9.18;100.00
19576;BME280;41589;51.196;7.074;2024-03-23T13:28:36;98302.44;;;9.28;100.00
19576;BME280;41589;51.196;7.074;2024-03-23T13:33:36;98309.47;;;9.24;100.00
19576;BME280;41589;51.196;7.074;2024-03-23T13:38:36;98315.88;;;8.64;100.00
19576;BME280;41589;51.196;7.074;2024-03-23T13:43:37;98323.81;;;8.47;100.00
19576;BME280;41589;51.196;7.074;2024-03-23T13:48:37;98306.31;;;8.80;100.00
19576;BME280;41589;51.196;7.074;2024-03-23T13:53:37;98292.50;;;9.18;100.00
19576;BME280;41589;51.196;7.074;2024-03-23T13:58:37;98281.88;;;9.55;100.00
19576;BME280;41589;51.196;7.074;2024-03-23T14:03:39;98268.59;;;9.56;100.00
19576;BME280;41589;51.196;7.074;2024-03-23T14:08:40;98289.81;;;9.24;100.00
19576;BME280;41589;51.196;7.074;2024-03-23T14:13:41;98294.28;;;8.97;100.00
19576;BME280;41589;51.196;7.074;2024-03-23T14:18:42;98299.25;;;9.03;100.00
19576;BME280;41589;51.196;7.074;2024-03-23T14:23:42;98282.91;;;8.83;100.00
19576;BME280;41589;51.196;7.074;2024-03-23T14:28:42;98277.53;;;9.12;100.00
19576;BME280;41589;51.196;7.074;2024-03-23T14:33:43;98268.16;;;9.57;100.00
19576;BME280;41589;51.196;7.074;2024-03-23T14:38:48;98255.06;;;9.45;100.00
19576;BME280;41589;51.196;7.074;2024-03-23T14:43:48;98249.00;;;9.47;100.00
19576;BME280;41589;51.196;7.074;2024-03-23T14:48:51;98245.38;;;9.22;100.00
19576;BME280;41589;51.196;7.074;2024-03-23T14:53:51;98271.88;;;8.79;100.00
19576;BME280;41589;51.196;7.074;2024-03-23T14:58:54;98271.66;;;8.22;100.00
19576;BME280;41589;51.196;7.074;2024-03-23T15:03:55;98268.38;;;8.33;100.00
19576;BME280;41589;51.196;7.074;2024-03-23T15:08:56;98267.72;;;8.29;100.00
19576;BME280;41589;51.196;7.074;2024-03-23T15:13:56;98264.91;;;8.47;100.00
19576;BME280;41589;51.196;7.074;2024-03-23T15:18:57;98259.16;;;8.05;100.00
19576;BME280;41589;51.196;7.074;2024-03-23T15:23:58;98254.75;;;7.86;100.00
19576;BME280;41589;51.196;7.074;2024-03-23T15:28:58;98252.13;;;7.82;100.00
19576;BME280;41589;51.196;7.074;2024-03-23T15:33:58;98238.13;;;8.37;100.00
19576;BME280;41589;51.196;7.074;2024-03-23T15:38:59;98238.56;;;8.63;100.00
19576;BME280;41589;51.196;7.074;2024-03-23T15:43:59;98228.34;;;8.32;100.00
19576;BME280;41589;51.196;7.074;2024-03-23T15:49:00;98228.28;;;8.51;100.00
19576;BME280;41589;51.196;7.074;2024-03-23T15:54:01;98223.63;;;8.20;100.00
19576;BME280;41589;51.196;7.074;2024-03-23T15:59:01;98218.50;;;8.28;100.00
19576;BME280;41589;51.196;7.074;2024-03-23T16:04:07;98221.59;;;8.21;100.00
19576;BME280;41589;51.196;7.074;2024-03-23T16:09:08;98215.25;;;8.11;100.00
19576;BME280;41589;51.196;7.074;2024-03-23T16:14:09;98213.03;;;8.15;100.00
19576;BME280;41589;51.196;7.074;2024-03-23T16:19:09;98200.91;;;8.00;100.00
19576;BME280;41589;51.196;7.074;2024-03-23T16:24:12;98202.78;;;7.94;100.00
19576;BME280;41589;51.196;7.074;2024-03-23T16:29:12;98191.75;;;7.90;100.00
19576;BME280;41589;51.196;7.074;2024-03-23T16:34:12;98179.72;;;7.99;100.00
19576;BME280;41589;51.196;7.074;2024-03-23T16:39:13;98193.13;;;7.86;100.00
19576;BME280;41589;51.196;7.074;2024-03-23T16:44:15;98185.50;;;8.04;100.00
19576;BME280;41589;51.196;7.074;2024-03-23T16:49:16;98196.56;;;9.44;100.00
19576;BME280;41589;51.196;7.074;2024-03-23T16:54:16;98196.56;;;10.45;100.00
19576;BME280;41589;51.196;7.074;2024-03-23T16:59:16;98182.75;;;9.55;100.00
19576;BME280;41589;51.196;7.074;2024-03-23T17:04:18;98191.16;;;8.74;100.00
19576;BME280;41589;51.196;7.074;2024-03-23T17:09:21;98180.47;;;8.45;100.00
19576;BME280;41589;51.196;7.074;2024-03-23T17:14:21;98175.66;;;8.09;100.00
19576;BME280;41589;51.196;7.074;2024-03-23T17:19:21;98175.06;;;8.05;100.00
19576;BME280;41589;51.196;7.074;2024-03-23T17:24:22;98185.34;;;7.80;100.00
19576;BME280;41589;51.196;7.074;2024-03-23T17:29:23;98186.84;;;7.45;100.00
19576;BME280;41589;51.196;7.074;2024-03-23T17:34:24;98187.47;;;7.40;100.00
19576;BME280;41589;51.196;7.074;2024-03-23T17:39:25;98188.09;;;7.44;100.00
19576;BME280;41589;51.196;7.074;2024-03-23T17:44:26;98177.69;;;7.44;100.00
19576;BME280;41589;51.196;7.074;2024-03-23T17:49:26;98188.38;;;7.37;100.00
19576;BME280;41589;51.196;7.074;2024-03-23T17:54:26;98192.72;;;7.19;100.00
19576;BME280;41589;51.196;7.074;2024-03-23T17:59:27;98231.44;;;6.81;100.00
19576;BME280;41589;51.196;7.074;2024-03-23T18:04:27;98218.91;;;6.63;100.00
19576;BME280;41589;51.196;7.074;2024-03-23T18:09:28;98231.66;;;6.64;100.00
19576;BME280;41589;51.196;7.074;2024-03-23T18:14:28;98214.03;;;6.77;100.00
19576;BME280;41589;51.196;7.074;2024-03-23T18:19:29;98217.88;;;6.70;100.00
19576;BME280;41589;51.196;7.074;2024-03-23T18:24:29;98217.81;;;6.61;100.00
19576;BME280;41589;51.196;7.074;2024-03-23T18:29:30;98210.59;;;6.51;100.00
19576;BME280;41589;51.196;7.074;2024-03-23T18:34:30;98213.56;;;6.47;100.00
19576;BME280;41589;51.196;7.074;2024-03-23T18:39:30;98220.75;;;6.57;100.00
19576;BME280;41589;51.196;7.074;2024-03-23T18:44:31;98218.31;;;6.68;100.00
19576;BME280;41589;51.196;7.074;2024-03-23T18:49:31;98215.53;;;6.68;100.00
19576;BME280;41589;51.196;7.074;2024-03-23T18:54:31;98207.50;;;6.80;100.00
19576;BME280;41589;51.196;7.074;2024-03-23T18:59:33;98205.06;;;6.91;100.00
19576;BME280;41589;51.196;7.074;2024-03-23T19:04:33;98204.28;;;6.90;100.00
19576;BME280;41589;51.196;7.074;2024-03-23T19:09:34;98208.69;;;6.70;100.00
19576;BME280;41589;51.196;7.074;2024-03-23T19:14:34;98215.63;;;6.87;100.00
19576;BME280;41589;51.196;7.074;2024-03-23T19:19:34;98210.19;;;6.92;100.00
19576;BME280;41589;51.196;7.074;2024-03-23T19:24:35;98210.16;;;6.83;100.00
19576;BME280;41589;51.196;7.074;2024-03-23T19:29:35;98196.63;;;6.82;100.00
19576;BME280;41589;51.196;7.074;2024-03-23T19:34:36;98197.88;;;6.81;100.00
19576;BME280;41589;51.196;7.074;2024-03-23T19:39:37;98183.91;;;6.90;100.00
19576;BME280;41589;51.196;7.074;2024-03-23T19:44:41;98178.59;;;6.83;100.00
19576;BME280;41589;51.196;7.074;2024-03-23T19:49:41;98174.88;;;6.77;100.00
19576;BME280;41589;51.196;7.074;2024-03-23T19:54:42;98178.91;;;6.45;100.00
19576;BME280;41589;51.196;7.074;2024-03-23T19:59:42;98185.13;;;6.27;100.00
19576;BME280;41589;51.196;7.074;2024-03-23T20:04:43;98185.06;;;6.18;100.00
19576;BME280;41589;51.196;7.074;2024-03-23T20:09:43;98174.59;;;6.31;100.00
19576;BME280;41589;51.196;7.074;2024-03-23T20:14:44;98173.25;;;6.35;100.00
19576;BME280;41589;51.196;7.074;2024-03-23T20:19:46;98157.03;;;6.52;100.00
19576;BME280;41589;51.196;7.074;2024-03-23T20:24:48;98163.69;;;6.46;100.00
19576;BME280;41589;51.196;7.074;2024-03-23T20:29:50;98158.50;;;6.35;100.00
19576;BME280;41589;51.196;7.074;2024-03-23T20:34:52;98153.47;;;6.30;100.00
19576;BME280;41589;51.196;7.074;2024-03-23T20:39:52;98145.34;;;6.23;100.00
19576;BME280;41589;51.196;7.074;2024-03-23T20:44:52;98153.31;;;6.33;100.00
19576;BME280;41589;51.196;7.074;2024-03-23T20:49:54;98147.88;;;6.30;100.00
19576;BME280;41589;51.196;7.074;2024-03-23T20:54:54;98149.38;;;6.22;100.00
19576;BME280;41589;51.196;7.074;2024-03-23T20:59:54;98140.56;;;6.23;100.00
19576;BME280;41589;51.196;7.074;2024-03-23T21:04:56;98148.34;;;6.28;100.00
19576;BME280;41589;51.196;7.074;2024-03-23T21:09:56;98144.75;;;6.28;100.00
19576;BME280;41589;51.196;7.074;2024-03-23T21:14:57;98151.13;;;6.28;100.00
19576;BME280;41589;51.196;7.074;2024-03-23T21:19:57;98141.97;;;6.28;100.00
19576;BME280;41589;51.196;7.074;2024-03-23T21:24:57;98139.53;;;6.08;100.00
19576;BME280;41589;51.196;7.074;2024-03-23T21:29:58;98122.88;;;6.26;100.00
19576;BME280;41589;51.196;7.074;2024-03-23T21:34:58;98114.13;;;5.93;100.00
19576;BME280;41589;51.196;7.074;2024-03-23T21:39:58;98114.13;;;5.93;100.00
19576;BME280;41589;51.196;7.074;2024-03-23T21:44:59;98119.34;;;6.04;100.00
19576;BME280;41589;51.196;7.074;2024-03-23T21:49:59;98112.50;;;6.05;100.00
19576;BME280;41589;51.196;7.074;2024-03-23T21:54:59;98112.69;;;6.10;100.00
19576;BME280;41589;51.196;7.074;2024-03-23T22:00:00;98094.84;;;5.64;100.00
19576;BME280;41589;51.196;7.074;2024-03-23T22:05:00;98100.50;;;5.73;100.00
19576;BME280;41589;51.196;7.074;2024-03-23T22:10:01;98110.44;;;5.96;100.00
19576;BME280;41589;51.196;7.074;2024-03-23T22:15:02;98100.50;;;5.95;100.00
19576;BME280;41589;51.196;7.074;2024-03-23T22:20:03;98092.16;;;6.04;100.00
19576;BME280;41589;51.196;7.074;2024-03-23T22:25:03;98097.44;;;6.02;100.00
19576;BME280;41589;51.196;7.074;2024-03-23T22:30:05;98094.97;;;6.04;100.00
19576;BME280;41589;51.196;7.074;2024-03-23T22:35:06;98096.69;;;6.11;100.00
19576;BME280;41589;51.196;7.074;2024-03-23T22:40:09;98089.59;;;6.19;100.00
19576;BME280;41589;51.196;7.074;2024-03-23T22:45:09;98075.63;;;6.19;100.00
19576;BME280;41589;51.196;7.074;2024-03-23T22:50:09;98077.28;;;6.38;100.00
19576;BME280;41589;51.196;7.074;2024-03-23T22:55:10;98065.19;;;6.10;100.00
19576;BME280;41589;51.196;7.074;2024-03-23T23:00:11;98067.44;;;6.25;100.00
19576;BME280;41589;51.196;7.074;2024-03-23T23:05:12;98062.31;;;6.23;100.00
19576;BME280;41589;51.196;7.074;2024-03-23T23:10:12;98049.59;;;6.31;100.00
19576;BME280;41589;51.196;7.074;2024-03-23T23:15:12;98053.78;;;6.27;100.00
19576;BME280;41589;51.196;7.074;2024-03-23T23:20:13;98039.97;;;6.32;100.00
19576;BME280;41589;51.196;7.074;2024-03-23T23:25:13;98042.59;;;6.27;100.00
19576;BME280;41589;51.196;7.074;2024-03-23T23:30:14;98032.78;;;6.22;100.00
19576;BME280;41589;51.196;7.074;2024-03-23T23:35:14;98028.28;;;6.16;100.00
19576;BME280;41589;51.196;7.074;2024-03-23T23:40:14;98023.25;;;6.10;100.00
19576;BME280;41589;51.196;7.074;2024-03-23T23:45:15;98023.25;;;6.10;100.00
19576;BME280;41589;51.196;7.074;2024-03-23T23:50:16;98019.13;;;6.15;100.00
19576;BME280;41589;51.196;7.074;2024-03-23T23:55:16;98014.56;;;6.08;100.00
